createdAt,value
2023-06-07T00:00:19.991Z,76.58
2023-06-07T00:02:47.786Z,76.93
2023-06-07T00:05:15.698Z,76.57
2023-06-07T00:07:43.878Z,74.98
2023-06-07T00:10:13.598Z,74.19
2023-06-07T00:12:42.916Z,79.79
2023-06-07T00:15:11.210Z,74.34
2023-06-07T00:17:41.875Z,78.28
2023-06-07T00:20:11.072Z,76.66
2023-06-07T00:22:39.784Z,76.58
2023-06-07T00:25:08.273Z,75.96
2023-06-07T00:27:36.141Z,76.70
2023-06-07T00:30:06.386Z,76.55
2023-06-07T00:32:34.233Z,75.23
2023-06-07T00:35:01.787Z,78.14
2023-06-07T00:37:29.280Z,77.69
2023-06-07T00:39:56.825Z,78.80
2023-06-07T00:42:24.373Z,78.76
2023-06-07T00:44:52.019Z,79.50
2023-06-07T00:47:20.905Z,77.46
2023-06-07T00:49:49.965Z,77.84
2023-06-07T00:52:18.721Z,87.26
2023-06-07T00:54:46.709Z,84.86
2023-06-07T00:57:16.742Z,81.47
2023-06-07T00:59:45.057Z,79.84
2023-06-07T01:02:16.047Z,87.98
2023-06-07T01:04:45.448Z,85.72
2023-06-07T01:07:13.518Z,86.36
2023-06-07T01:09:41.265Z,85.12
2023-06-07T01:12:15.724Z,83.11
2023-06-07T01:14:44.627Z,79.02
2023-06-07T01:17:13.840Z,77.43
2023-06-07T01:19:43.244Z,77.04
2023-06-07T01:22:15.189Z,78.46
2023-06-07T01:24:44.156Z,77.34
2023-06-07T01:27:12.242Z,83.17
2023-06-07T01:29:40.265Z,79.14
2023-06-07T01:32:10.477Z,80.50
2023-06-07T01:34:38.736Z,77.56
2023-06-07T01:37:07.104Z,79.69
2023-06-07T01:39:35.474Z,78.37
2023-06-07T01:42:05.892Z,77.89
2023-06-07T01:44:33.758Z,78.09
2023-06-07T01:47:01.459Z,78.18
2023-06-07T01:49:29.014Z,77.12
2023-06-07T01:51:56.699Z,78.25
2023-06-07T01:54:24.675Z,77.56
2023-06-07T01:57:05.370Z,77.54
2023-06-07T01:59:43.878Z,77.51
2023-06-07T02:02:19.176Z,76.62
2023-06-07T02:04:49.811Z,78.41
2023-06-07T02:07:24.723Z,78.18
2023-06-07T02:09:53.232Z,78.86
2023-06-07T02:12:22.255Z,78.76
2023-06-07T02:14:53.445Z,78.31
2023-06-07T02:17:21.505Z,78.33
2023-06-07T02:19:49.331Z,78.26
2023-06-07T02:22:17.025Z,77.64
2023-06-07T02:24:45.410Z,76.76
2023-06-07T02:27:13.993Z,78.18
2023-06-07T02:29:41.514Z,77.20
2023-06-07T02:32:10.917Z,78.05
2023-06-07T02:34:40.461Z,78.49
2023-06-07T02:37:07.970Z,79.16
2023-06-07T02:39:35.501Z,78.22
2023-06-07T02:42:03.089Z,78.75
2023-06-07T02:44:30.558Z,78.61
2023-06-07T02:46:58.378Z,77.89
2023-06-07T02:49:27.405Z,80.34
2023-06-07T02:51:55.076Z,79.09
2023-06-07T02:54:22.636Z,77.42
2023-06-07T02:56:50.107Z,77.18
2023-06-07T02:59:17.625Z,80.28
2023-06-07T03:01:45.100Z,78.86
2023-06-07T03:04:12.608Z,78.18
2023-06-07T03:06:42.304Z,80.89
2023-06-07T03:09:10.193Z,78.95
2023-06-07T03:11:37.658Z,79.75
2023-06-07T03:14:05.149Z,77.15
2023-06-07T03:16:33.202Z,78.27
2023-06-07T03:19:00.771Z,77.95
2023-06-07T03:21:28.444Z,78.22
2023-06-07T03:23:57.402Z,78.39
2023-06-07T03:26:25.037Z,79.48
2023-06-07T03:28:53.438Z,79.32
2023-06-07T03:31:21.120Z,78.89
2023-06-07T03:33:48.757Z,79.46
2023-06-07T03:36:21.845Z,77.55
2023-06-07T03:38:49.608Z,78.53
2023-06-07T03:41:18.464Z,78.50
2023-06-07T03:43:45.931Z,78.24
2023-06-07T03:46:13.485Z,79.32
2023-06-07T03:48:41.088Z,79.82
2023-06-07T03:51:08.693Z,78.52
2023-06-07T03:53:36.215Z,77.92
2023-06-07T03:56:04.289Z,79.30
2023-06-07T03:58:33.491Z,80.39
2023-06-07T04:01:01.092Z,80.50
2023-06-07T04:03:29.362Z,80.33
2023-06-07T04:05:56.970Z,78.98
2023-06-07T04:08:24.844Z,80.15
2023-06-07T04:10:53.796Z,79.75
2023-06-07T04:13:21.387Z,79.50
2023-06-07T04:15:50.441Z,80.33
2023-06-07T04:18:17.968Z,80.84
2023-06-07T04:20:45.488Z,78.81
2023-06-07T04:23:13.200Z,80.72
2023-06-07T04:25:40.900Z,80.66
2023-06-07T04:28:11.407Z,82.07
2023-06-07T04:30:42.206Z,80.37
2023-06-07T04:33:14.106Z,79.08
2023-06-07T04:35:43.793Z,78.96
2023-06-07T04:38:12.897Z,80.05
2023-06-07T04:40:42.258Z,79.84
2023-06-07T04:43:12.138Z,78.35
2023-06-07T04:45:42.476Z,80.67
2023-06-07T04:48:12.717Z,82.70
2023-06-07T04:50:42.269Z,81.03
2023-06-07T04:53:11.968Z,82.24
2023-06-07T04:55:42.722Z,80.51
2023-06-07T04:58:10.875Z,82.03
2023-06-07T05:00:40.157Z,80.77
2023-06-07T05:03:09.579Z,80.64
2023-06-07T05:05:39.142Z,82.64
2023-06-07T05:08:06.845Z,83.12
2023-06-07T05:10:34.496Z,86.87
2023-06-07T05:13:02.132Z,81.93
2023-06-07T05:15:29.667Z,80.88
2023-06-07T05:17:57.247Z,92.07
2023-06-07T05:20:26.097Z,89.82
2023-06-07T05:22:58.197Z,86.62
2023-06-07T05:25:25.849Z,86.95
2023-06-07T05:28:08.223Z,87.83
2023-06-07T05:30:40.944Z,94.57
2023-06-07T05:33:08.609Z,95.29
2023-06-07T05:35:36.167Z,88.83
2023-06-07T05:38:05.162Z,98.98
2023-06-07T05:40:32.682Z,97.88
2023-06-07T05:43:00.215Z,92.52
2023-06-07T05:45:27.702Z,90.33
2023-06-07T05:47:55.377Z,91.59
2023-06-07T05:50:24.982Z,90.61
2023-06-07T05:52:57.392Z,91.80
2023-06-07T05:55:28.059Z,90.68
2023-06-07T05:57:58.110Z,90.56
2023-06-07T06:00:25.855Z,90.26
2023-06-07T06:02:54.109Z,90.63
2023-06-07T06:05:24.588Z,90.54
2023-06-07T06:07:52.621Z,90.26
2023-06-07T06:10:20.125Z,90.58
2023-06-07T06:12:49.060Z,91.00
2023-06-07T06:15:16.553Z,91.03
2023-06-07T06:17:44.123Z,94.16
2023-06-07T06:20:13.282Z,91.53
2023-06-07T06:22:41.011Z,93.01
2023-06-07T06:25:09.932Z,92.58
2023-06-07T06:27:37.464Z,90.74
2023-06-07T06:30:08.082Z,89.20
2023-06-07T06:32:36.119Z,89.31
2023-06-07T06:35:04.218Z,90.20
2023-06-07T06:37:31.810Z,89.66
2023-06-07T06:39:59.306Z,85.64
2023-06-07T06:42:26.975Z,86.71
2023-06-07T06:44:54.448Z,88.14
2023-06-07T06:47:23.622Z,84.96
2023-06-07T06:49:52.702Z,87.76
2023-06-07T06:52:20.354Z,87.15
2023-06-07T06:54:47.842Z,88.07
2023-06-07T06:57:15.483Z,86.59
2023-06-07T06:59:43.015Z,87.01
2023-06-07T07:02:11.824Z,89.76
2023-06-07T07:04:40.957Z,85.18
2023-06-07T07:07:08.533Z,87.66
2023-06-07T07:09:36.322Z,86.23
2023-06-07T07:12:04.271Z,85.86
2023-06-07T07:14:31.738Z,86.51
2023-06-07T07:16:59.374Z,85.80
2023-06-07T07:19:27.010Z,87.43
2023-06-07T07:21:55.962Z,83.86
2023-06-07T07:24:23.508Z,81.67
2023-06-07T07:26:51.255Z,83.72
2023-06-07T07:29:18.794Z,83.58
2023-06-07T07:31:46.363Z,84.77
2023-06-07T07:34:15.264Z,85.96
2023-06-07T07:36:45.019Z,84.08
2023-06-07T07:39:14.214Z,85.20
2023-06-07T07:41:42.294Z,84.95
2023-06-07T07:44:09.886Z,84.25
2023-06-07T07:46:37.564Z,86.30
2023-06-07T07:49:05.121Z,87.17
2023-06-07T07:51:32.749Z,82.94
2023-06-07T07:54:01.248Z,81.57
2023-06-07T07:56:30.089Z,81.72
2023-06-07T07:58:57.665Z,80.89
2023-06-07T08:01:25.187Z,80.84
2023-06-07T08:03:53.095Z,80.66
2023-06-07T08:06:21.125Z,81.51
2023-06-07T08:08:48.803Z,81.56
2023-06-07T08:11:16.377Z,80.08
2023-06-07T08:13:45.516Z,79.79
2023-06-07T08:16:13.578Z,78.33
2023-06-07T08:18:41.033Z,75.83
2023-06-07T08:21:08.553Z,76.18
2023-06-07T08:23:37.501Z,76.09
2023-06-07T08:26:05.197Z,77.97
2023-06-07T08:28:32.752Z,76.77
2023-06-07T08:31:04.799Z,76.92
2023-06-07T08:33:32.363Z,77.01
2023-06-07T08:35:59.840Z,77.12
2023-06-07T08:38:27.421Z,77.10
2023-06-07T08:40:55.982Z,78.20
2023-06-07T08:43:23.728Z,76.86
2023-06-07T08:45:51.828Z,73.12
2023-06-07T08:48:22.069Z,72.94
2023-06-07T08:50:55.284Z,69.91
2023-06-07T08:53:29.141Z,70.38
2023-06-07T08:55:59.350Z,72.99
2023-06-07T08:58:28.818Z,73.87
2023-06-07T09:01:00.616Z,71.78
2023-06-07T09:03:29.679Z,74.95
2023-06-07T09:08:22.491Z,69.85
2023-06-07T09:10:50.075Z,67.90
2023-06-07T09:13:20.989Z,68.06
2023-06-07T09:15:50.460Z,68.06
2023-06-07T09:18:18.339Z,70.89
2023-06-07T09:20:47.390Z,71.57
2023-06-07T09:23:16.013Z,69.40
2023-06-07T09:25:45.580Z,70.22
2023-06-07T09:28:14.242Z,70.04
2023-06-07T09:30:55.698Z,67.38
2023-06-07T09:33:30.843Z,63.29
2023-06-07T09:36:07.762Z,63.08
2023-06-07T09:38:35.506Z,63.96
2023-06-07T09:41:06.242Z,63.89
2023-06-07T09:43:44.021Z,63.41
2023-06-07T09:46:12.019Z,60.98
2023-06-07T09:48:47.610Z,59.96
2023-06-07T09:51:17.119Z,64.67
2023-06-07T09:53:52.457Z,64.32
2023-06-07T09:56:21.209Z,60.81
2023-06-07T09:58:50.593Z,60.88
2023-06-07T10:01:33.827Z,61.34
2023-06-07T10:04:03.592Z,59.30
2023-06-07T10:06:39.611Z,60.84
2023-06-07T10:09:08.789Z,58.29
2023-06-07T10:11:38.677Z,57.09
2023-06-07T10:14:08.612Z,60.42
2023-06-07T10:16:38.342Z,59.55
2023-06-07T10:19:13.556Z,58.78
2023-06-07T10:21:46.581Z,59.81
2023-06-07T10:24:20.269Z,61.28
2023-06-07T10:26:54.734Z,59.35
2023-06-07T10:29:30.751Z,59.92
2023-06-07T10:32:07.742Z,60.95
2023-06-07T10:34:37.300Z,59.45
2023-06-07T10:37:08.292Z,57.72
2023-06-07T10:39:36.490Z,58.27
2023-06-07T10:42:04.518Z,56.99
2023-06-07T10:44:32.676Z,58.06
2023-06-07T10:47:25.915Z,57.00
2023-06-07T10:49:54.685Z,56.46
2023-06-07T10:52:24.055Z,55.93
2023-06-07T10:54:52.911Z,53.38
2023-06-07T10:57:33.853Z,55.96
2023-06-07T11:00:31.170Z,57.44
2023-06-07T11:03:36.663Z,57.12
2023-06-07T11:06:06.506Z,55.60
2023-06-07T11:08:37.680Z,56.38
2023-06-07T11:11:27.140Z,54.33
2023-06-07T11:14:14.212Z,54.02
2023-06-07T11:16:42.598Z,54.44
2023-06-07T11:19:14.147Z,55.87
2023-06-07T11:22:06.329Z,54.76
2023-06-07T11:24:37.863Z,54.92
2023-06-07T11:27:11.785Z,56.71
2023-06-07T11:29:40.718Z,49.70
2023-06-07T11:32:11.115Z,50.64
2023-06-07T11:34:38.927Z,50.92
2023-06-07T11:37:17.717Z,51.47
2023-06-07T11:39:47.259Z,49.59
2023-06-07T11:42:14.860Z,54.11
2023-06-07T11:44:43.250Z,52.45
2023-06-07T11:47:11.193Z,51.12
2023-06-07T11:49:42.145Z,49.64
2023-06-07T11:52:10.487Z,50.16
2023-06-07T11:54:44.018Z,50.65
2023-06-07T11:57:12.965Z,50.63
2023-06-07T11:59:42.041Z,48.62
2023-06-07T12:02:10.514Z,51.10
2023-06-07T12:04:38.340Z,50.05
2023-06-07T12:07:21.264Z,52.32
2023-06-07T12:09:51.376Z,48.16
2023-06-07T12:12:20.443Z,47.30
2023-06-07T12:14:52.404Z,47.45
2023-06-07T12:17:20.547Z,51.83
2023-06-07T12:19:48.108Z,46.49
2023-06-07T12:22:15.893Z,48.07
2023-06-07T12:24:43.503Z,46.99
2023-06-07T12:27:13.995Z,46.74
2023-06-07T12:29:43.881Z,42.28
2023-06-07T12:32:12.688Z,44.71
2023-06-07T12:34:45.392Z,47.17
2023-06-07T12:37:13.952Z,45.43
2023-06-07T12:39:41.782Z,43.93
2023-06-07T12:42:09.564Z,45.00
2023-06-07T12:44:37.197Z,47.24
2023-06-07T12:47:06.603Z,45.18
2023-06-07T12:49:34.269Z,43.37
2023-06-07T12:52:03.729Z,43.85
2023-06-07T12:54:31.294Z,43.12
2023-06-07T12:56:58.945Z,45.25
2023-06-07T12:59:26.565Z,43.76
2023-06-07T13:01:54.286Z,44.34
2023-06-07T13:04:24.193Z,45.41
2023-06-07T13:06:51.826Z,46.09
2023-06-07T13:09:20.001Z,48.37
2023-06-07T13:11:47.927Z,46.76
2023-06-07T13:14:17.560Z,43.21
2023-06-07T13:16:45.328Z,41.11
2023-06-07T13:19:12.980Z,40.78
2023-06-07T13:21:43.220Z,41.39
2023-06-07T13:24:10.920Z,41.93
2023-06-07T13:26:38.511Z,39.37
2023-06-07T13:29:06.082Z,43.37
2023-06-07T13:31:33.638Z,41.15
2023-06-07T13:34:03.022Z,41.52
2023-06-07T13:36:30.518Z,41.41
2023-06-07T13:38:59.914Z,40.35
2023-06-07T13:41:30.396Z,41.26
2023-06-07T13:44:15.577Z,39.66
2023-06-07T13:46:45.509Z,40.77
2023-06-07T13:49:13.882Z,40.70
2023-06-07T13:51:41.589Z,40.93
2023-06-07T13:54:10.537Z,38.92
2023-06-07T13:56:38.168Z,40.16
2023-06-07T13:59:05.748Z,40.01
2023-06-07T14:01:33.595Z,40.44
2023-06-07T14:04:03.766Z,38.81
2023-06-07T14:06:31.466Z,38.72
2023-06-07T14:08:59.033Z,39.32
2023-06-07T14:11:28.290Z,36.96
2023-06-07T14:13:55.877Z,37.68
2023-06-07T14:16:24.918Z,39.70
2023-06-07T14:18:53.997Z,41.21
2023-06-07T14:21:21.554Z,42.12
2023-06-07T14:23:49.185Z,41.56
2023-06-07T14:26:16.887Z,43.59
2023-06-07T14:28:45.806Z,42.09
2023-06-07T14:31:14.083Z,42.63
2023-06-07T14:33:41.684Z,42.36
2023-06-07T14:36:09.186Z,38.41
2023-06-07T14:38:37.772Z,38.06
2023-06-07T14:41:05.435Z,40.20
2023-06-07T14:43:32.952Z,41.43
2023-06-07T14:46:01.879Z,41.16
2023-06-07T14:48:29.399Z,40.22
2023-06-07T14:50:57.054Z,41.72
2023-06-07T14:53:24.626Z,41.25
2023-06-07T14:55:52.224Z,40.91
2023-06-07T14:58:19.727Z,40.27
2023-06-07T15:00:47.225Z,38.72
2023-06-07T15:03:17.127Z,41.04
2023-06-07T15:05:44.771Z,39.96
2023-06-07T15:08:12.259Z,39.89
2023-06-07T15:10:39.722Z,39.17
2023-06-07T15:13:07.225Z,38.05
2023-06-07T15:15:34.878Z,36.20
2023-06-07T15:18:02.434Z,37.55
2023-06-07T15:20:31.282Z,36.39
2023-06-07T15:22:58.811Z,37.60
2023-06-07T15:25:26.674Z,37.94
2023-06-07T15:27:54.165Z,37.54
2023-06-07T15:30:21.689Z,39.63
2023-06-07T15:32:49.205Z,39.11
2023-06-07T15:35:16.758Z,37.15
2023-06-07T15:37:45.746Z,37.58
2023-06-07T15:40:13.478Z,37.34
2023-06-07T15:42:40.825Z,39.64
2023-06-07T15:45:09.172Z,38.28
2023-06-07T15:47:36.954Z,38.78
2023-06-07T15:50:04.807Z,36.59
2023-06-07T15:52:32.453Z,38.86
2023-06-07T15:55:01.287Z,39.77
2023-06-07T15:57:28.883Z,38.78
2023-06-07T15:59:56.401Z,38.56
2023-06-07T16:02:23.976Z,40.96
2023-06-07T16:04:51.497Z,39.12
2023-06-07T16:07:19.054Z,36.56
2023-06-07T16:09:46.544Z,36.06
2023-06-07T16:12:15.825Z,36.74
2023-06-07T16:14:44.192Z,37.50
2023-06-07T16:17:11.766Z,37.38
2023-06-07T16:19:39.599Z,38.02
2023-06-07T16:22:09.084Z,36.36
2023-06-07T16:24:36.563Z,38.14
2023-06-07T16:27:04.322Z,37.43
2023-06-07T16:29:33.037Z,38.52
2023-06-07T16:32:00.523Z,39.94
2023-06-07T16:34:28.024Z,41.96
2023-06-07T16:36:55.554Z,44.33
2023-06-07T16:39:23.105Z,45.35
2023-06-07T16:41:50.597Z,47.43
2023-06-07T16:44:19.132Z,48.35
2023-06-07T16:46:48.571Z,48.77
2023-06-07T16:49:16.287Z,50.85
2023-06-07T16:51:43.833Z,50.48
2023-06-07T16:54:12.147Z,51.05
2023-06-07T16:56:39.672Z,50.71
2023-06-07T16:59:07.597Z,51.47
2023-06-07T17:01:36.526Z,51.46
2023-06-07T17:04:05.903Z,51.38
2023-06-07T17:06:33.525Z,51.27
2023-06-07T17:09:01.018Z,51.80
2023-06-07T17:11:28.619Z,51.67
2023-06-07T17:13:56.437Z,51.10
2023-06-07T17:16:24.071Z,52.03
2023-06-07T17:18:51.616Z,51.99
2023-06-07T17:21:20.706Z,52.10
2023-06-07T17:23:48.383Z,51.69
2023-06-07T17:26:15.974Z,52.40
2023-06-07T17:28:43.512Z,52.16
2023-06-07T17:31:11.779Z,52.74
2023-06-07T17:33:41.706Z,53.18
2023-06-07T17:36:09.941Z,52.44
2023-06-07T17:38:38.897Z,51.21
2023-06-07T17:41:06.516Z,52.22
2023-06-07T17:43:34.101Z,51.54
2023-06-07T17:46:01.675Z,51.94
2023-06-07T17:48:29.288Z,52.48
2023-06-07T17:50:56.875Z,52.42
2023-06-07T17:53:24.426Z,53.06
2023-06-07T17:55:53.245Z,52.50
2023-06-07T17:58:20.852Z,52.51
2023-06-07T18:00:48.352Z,53.85
2023-06-07T18:03:19.938Z,52.98
2023-06-07T18:05:47.808Z,52.92
2023-06-07T18:08:15.733Z,54.28
2023-06-07T18:10:43.273Z,54.68
2023-06-07T18:13:12.145Z,55.05
2023-06-07T18:15:39.680Z,54.94
2023-06-07T18:18:07.276Z,54.97
2023-06-07T18:20:34.856Z,55.57
2023-06-07T18:23:04.782Z,55.52
2023-06-07T18:25:32.809Z,55.97
2023-06-07T18:28:00.323Z,55.92
2023-06-07T18:30:29.399Z,56.25
2023-06-07T18:35:24.873Z,57.04
2023-06-07T18:37:52.376Z,57.45
2023-06-07T18:40:22.350Z,57.35
2023-06-07T18:42:49.980Z,57.50
2023-06-07T18:45:17.779Z,57.12
2023-06-07T18:47:46.978Z,57.43
2023-06-07T18:50:14.669Z,58.15
2023-06-07T18:52:42.207Z,58.90
2023-06-07T18:55:10.354Z,59.05
2023-06-07T18:57:38.393Z,58.94
2023-06-07T19:00:06.476Z,59.96
2023-06-07T19:02:34.285Z,59.18
2023-06-07T19:05:03.225Z,60.08
2023-06-07T19:07:30.996Z,58.93
2023-06-07T19:09:58.559Z,60.27
2023-06-07T19:12:28.962Z,59.02
2023-06-07T19:14:56.988Z,59.90
2023-06-07T19:17:24.792Z,59.80
2023-06-07T19:19:52.202Z,58.79
2023-06-07T19:22:21.076Z,58.89
2023-06-07T19:24:48.622Z,59.66
2023-06-07T19:27:16.707Z,61.09
2023-06-07T19:29:44.245Z,62.32
2023-06-07T19:32:14.936Z,61.59
2023-06-07T19:34:42.438Z,62.12
2023-06-07T19:37:09.930Z,62.55
2023-06-07T19:39:39.092Z,63.57
2023-06-07T19:42:09.175Z,62.67
2023-06-07T19:44:38.591Z,63.55
2023-06-07T19:47:06.758Z,63.77
2023-06-07T19:49:34.376Z,64.20
2023-06-07T19:52:03.726Z,64.31
2023-06-07T19:54:31.818Z,64.79
2023-06-07T19:57:00.711Z,63.74
2023-06-07T19:59:28.308Z,65.01
2023-06-07T20:01:56.971Z,66.30
2023-06-07T20:04:24.522Z,66.46
2023-06-07T20:06:52.035Z,65.24
2023-06-07T20:09:19.519Z,66.42
2023-06-07T20:11:47.023Z,65.00
2023-06-07T20:14:17.174Z,64.94
2023-06-07T20:16:44.744Z,63.97
2023-06-07T20:19:12.266Z,64.33
2023-06-07T20:21:39.800Z,64.89
2023-06-07T20:24:07.473Z,63.31
2023-06-07T20:26:38.005Z,64.09
2023-06-07T20:29:05.695Z,63.67
2023-06-07T20:31:34.610Z,61.73
2023-06-07T20:34:02.191Z,63.31
2023-06-07T20:36:29.727Z,61.92
2023-06-07T20:38:57.284Z,62.60
2023-06-07T20:41:24.782Z,64.05
2023-06-07T20:43:52.259Z,62.25
2023-06-07T20:46:19.846Z,62.66
2023-06-07T20:48:48.726Z,62.51
2023-06-07T20:51:16.486Z,62.70
2023-06-07T20:53:44.167Z,62.77
2023-06-07T20:56:11.796Z,62.52
2023-06-07T20:58:39.300Z,67.54
2023-06-07T21:01:06.867Z,67.49
2023-06-07T21:03:34.697Z,66.87
2023-06-07T21:06:03.546Z,67.24
2023-06-07T21:08:31.073Z,65.31
2023-06-07T21:10:58.652Z,66.03
2023-06-07T21:13:26.366Z,68.69
2023-06-07T21:15:53.925Z,70.76
2023-06-07T21:18:21.456Z,68.66
2023-06-07T21:20:48.987Z,69.08
2023-06-07T21:23:17.893Z,67.84
2023-06-07T21:25:45.515Z,67.98
2023-06-07T21:28:13.061Z,66.57
2023-06-07T21:30:40.686Z,66.40
2023-06-07T21:33:08.324Z,67.96
2023-06-07T21:35:35.869Z,65.61
2023-06-07T21:38:03.455Z,67.65
2023-06-07T21:40:32.447Z,64.81
2023-06-07T21:42:59.974Z,65.02
2023-06-07T21:45:28.156Z,66.62
2023-06-07T21:47:55.895Z,64.11
2023-06-07T21:50:23.486Z,64.59
2023-06-07T21:52:51.859Z,69.58
2023-06-07T21:55:19.483Z,65.19
2023-06-07T21:57:48.366Z,66.09
2023-06-07T22:00:16.553Z,70.71
2023-06-07T22:02:44.259Z,66.47
2023-06-07T22:05:11.893Z,65.19
2023-06-07T22:07:41.555Z,64.61
2023-06-07T22:10:10.022Z,65.52
2023-06-07T22:12:38.256Z,66.31
2023-06-07T22:15:08.979Z,66.79
2023-06-07T22:17:37.591Z,66.57
2023-06-07T22:20:07.242Z,65.23
2023-06-07T22:22:35.402Z,66.77
2023-06-07T22:25:03.034Z,66.48
2023-06-07T22:27:33.892Z,65.68
2023-06-07T22:30:01.424Z,68.41
2023-06-07T22:32:30.748Z,69.06
2023-06-07T22:35:05.094Z,66.18
2023-06-07T22:37:38.003Z,65.97
2023-06-07T22:40:07.541Z,68.01
2023-06-07T22:42:35.713Z,66.15
2023-06-07T22:45:03.780Z,67.61
2023-06-07T22:47:33.342Z,67.25
2023-06-07T22:50:01.753Z,67.47
2023-06-07T22:52:34.225Z,66.81
2023-06-07T22:55:01.906Z,66.48
2023-06-07T22:57:29.546Z,67.26
2023-06-07T22:59:57.186Z,67.24
2023-06-07T23:02:24.719Z,67.42
2023-06-07T23:04:53.634Z,68.09
2023-06-07T23:07:21.921Z,68.13
2023-06-07T23:09:49.939Z,67.17
2023-06-07T23:12:17.400Z,65.65
2023-06-07T23:14:49.487Z,67.06
2023-06-07T23:17:17.665Z,67.06
2023-06-07T23:19:46.552Z,67.72
2023-06-07T23:22:17.967Z,66.77
2023-06-07T23:24:49.141Z,67.25
2023-06-07T23:27:16.845Z,66.75
2023-06-07T23:29:44.401Z,67.60
2023-06-07T23:32:12.267Z,68.40
2023-06-07T23:34:40.121Z,68.48
2023-06-07T23:37:07.692Z,66.16
2023-06-07T23:39:36.584Z,67.83
2023-06-07T23:42:04.563Z,68.18
2023-06-07T23:44:32.334Z,67.62
2023-06-07T23:47:00.561Z,66.67
2023-06-07T23:49:35.018Z,67.21
2023-06-07T23:52:02.773Z,68.84
2023-06-07T23:54:30.402Z,69.03
2023-06-07T23:56:59.281Z,67.81
2023-06-07T23:59:26.863Z,67.13
